createdAt,value
2019-01-20T00:01:47.300Z,6.00
2019-01-20T00:04:17.058Z,6.95
2019-01-20T00:06:46.789Z,7.40
2019-01-20T00:09:16.453Z,7.08
2019-01-20T00:11:46.263Z,5.70
2019-01-20T00:14:15.957Z,6.53
2019-01-20T00:16:45.700Z,6.08
2019-01-20T00:19:15.431Z,9.33
2019-01-20T00:21:45.147Z,8.18
2019-01-20T00:24:14.799Z,7.70
2019-01-20T00:26:44.479Z,5.12
2019-01-20T00:29:14.270Z,5.90
2019-01-20T00:31:43.949Z,6.22
2019-01-20T00:34:13.749Z,5.20
2019-01-20T00:36:43.531Z,4.42
2019-01-20T00:39:13.277Z,5.90
2019-01-20T00:41:43.072Z,5.05
2019-01-20T00:44:12.826Z,5.97
2019-01-20T00:46:42.473Z,8.78
2019-01-20T00:49:12.238Z,4.65
2019-01-20T00:51:41.962Z,6.75
2019-01-20T00:54:12.151Z,6.70
2019-01-20T00:56:41.971Z,6.22
2019-01-20T00:59:11.603Z,6.28
2019-01-20T01:01:41.414Z,6.03
2019-01-20T01:04:11.243Z,7.45
2019-01-20T01:06:40.900Z,6.90
2019-01-20T01:09:10.896Z,6.97
2019-01-20T01:11:40.672Z,8.50
2019-01-20T01:14:10.944Z,10.18
2019-01-20T01:16:40.664Z,7.95
2019-01-20T01:19:10.376Z,9.78
2019-01-20T01:21:40.104Z,6.70
2019-01-20T01:24:09.917Z,10.50
2019-01-20T01:26:39.572Z,9.40
2019-01-20T01:29:09.298Z,10.30
2019-01-20T01:31:39.009Z,9.68
2019-01-20T01:34:08.759Z,9.08
2019-01-20T01:36:38.594Z,9.80
2019-01-20T01:39:09.037Z,9.95
2019-01-20T01:41:39.355Z,11.00
2019-01-20T01:44:09.157Z,12.10
2019-01-20T01:46:38.948Z,9.88
2019-01-20T01:49:08.619Z,11.55
2019-01-20T01:51:38.440Z,9.13
2019-01-20T01:54:08.156Z,9.48
2019-01-20T01:56:37.806Z,9.93
2019-01-20T01:59:07.629Z,10.55
2019-01-20T02:01:37.546Z,10.68
2019-01-20T02:04:07.374Z,12.90
2019-01-20T02:06:37.137Z,11.33
2019-01-20T02:09:08.786Z,12.18
2019-01-20T02:11:38.586Z,11.33
2019-01-20T02:14:08.320Z,12.05
2019-01-20T02:16:38.052Z,12.73
2019-01-20T02:19:07.786Z,12.53
2019-01-20T02:21:37.596Z,12.95
2019-01-20T02:24:07.334Z,13.22
2019-01-20T02:26:37.061Z,12.23
2019-01-20T02:29:07.774Z,11.25
2019-01-20T02:31:37.462Z,14.35
2019-01-20T02:34:07.251Z,13.38
2019-01-20T02:36:36.978Z,13.58
2019-01-20T02:39:07.859Z,12.50
2019-01-20T02:41:37.660Z,10.03
2019-01-20T02:44:07.458Z,14.40
2019-01-20T02:46:37.132Z,14.00
2019-01-20T02:49:06.861Z,13.85
2019-01-20T02:51:36.519Z,13.83
2019-01-20T02:54:06.319Z,12.70
2019-01-20T02:56:36.151Z,9.88
2019-01-20T02:59:05.874Z,11.38
2019-01-20T03:01:35.636Z,12.73
2019-01-20T03:04:05.778Z,12.65
2019-01-20T03:06:35.517Z,13.20
2019-01-20T03:09:08.538Z,11.63
2019-01-20T03:11:38.316Z,13.58
2019-01-20T03:14:09.078Z,12.23
2019-01-20T03:16:38.801Z,11.08
2019-01-20T03:19:08.857Z,12.58
2019-01-20T03:21:38.593Z,11.63
2019-01-20T03:24:08.332Z,12.85
2019-01-20T03:26:38.078Z,13.15
2019-01-20T03:29:07.873Z,13.62
2019-01-20T03:31:37.666Z,15.70
2019-01-20T03:34:07.404Z,13.00
2019-01-20T03:36:37.139Z,11.85
2019-01-20T03:39:07.956Z,11.10
2019-01-20T03:41:37.762Z,13.40
2019-01-20T03:44:07.620Z,13.00
2019-01-20T03:46:37.369Z,11.30
2019-01-20T03:49:07.110Z,17.20
2019-01-20T03:51:36.791Z,16.02
2019-01-20T03:54:06.769Z,14.20
2019-01-20T03:56:36.638Z,13.08
2019-01-20T03:59:06.423Z,13.70
2019-01-20T04:01:36.405Z,14.35
2019-01-20T04:04:06.324Z,18.85
2019-01-20T04:06:36.049Z,14.50
2019-01-20T04:09:07.927Z,12.05
2019-01-20T04:11:37.639Z,13.05
2019-01-20T04:14:07.532Z,14.95
2019-01-20T04:16:37.260Z,9.75
2019-01-20T04:19:07.048Z,11.05
2019-01-20T04:21:36.784Z,12.80
2019-01-20T04:24:06.604Z,11.57
2019-01-20T04:26:36.355Z,9.73
2019-01-20T04:29:06.202Z,10.35
2019-01-20T04:31:36.063Z,11.10
2019-01-20T04:34:05.843Z,13.48
2019-01-20T04:36:35.576Z,13.05
2019-01-20T04:39:07.619Z,12.18
2019-01-20T04:41:37.345Z,14.45
2019-01-20T04:44:07.076Z,10.93
2019-01-20T04:46:41.213Z,12.10
2019-01-20T04:49:11.049Z,15.50
2019-01-20T04:51:40.732Z,9.38
2019-01-20T04:54:11.005Z,8.70
2019-01-20T04:56:40.763Z,10.45
2019-01-20T04:59:10.475Z,10.95
2019-01-20T05:01:40.153Z,11.63
2019-01-20T05:04:09.970Z,8.18
2019-01-20T05:06:39.741Z,8.40
2019-01-20T05:09:09.663Z,9.48
2019-01-20T05:11:39.524Z,10.80
2019-01-20T05:14:09.373Z,12.68
2019-01-20T05:16:39.194Z,10.23
2019-01-20T05:19:09.042Z,10.13
2019-01-20T05:21:38.719Z,8.65
2019-01-20T05:24:08.429Z,9.73
2019-01-20T05:26:38.202Z,8.53
2019-01-20T05:29:07.877Z,9.45
2019-01-20T05:31:37.682Z,10.38
2019-01-20T05:34:07.393Z,9.33
2019-01-20T05:36:37.087Z,11.50
2019-01-20T05:39:08.376Z,9.08
2019-01-20T05:41:38.200Z,12.78
2019-01-20T05:44:07.977Z,10.40
2019-01-20T05:46:37.701Z,11.55
2019-01-20T05:49:07.464Z,10.40
2019-01-20T05:51:37.326Z,13.30
2019-01-20T05:54:07.028Z,10.10
2019-01-20T05:56:36.749Z,10.88
2019-01-20T05:59:06.535Z,12.80
2019-01-20T06:01:36.247Z,9.28
2019-01-20T06:04:06.132Z,11.48
2019-01-20T06:06:35.772Z,10.25
2019-01-20T06:09:07.923Z,9.10
2019-01-20T06:11:37.580Z,9.98
2019-01-20T06:14:07.231Z,10.03
2019-01-20T06:16:37.035Z,11.63
2019-01-20T06:19:06.704Z,11.60
2019-01-20T06:21:36.408Z,9.48
2019-01-20T06:24:06.263Z,9.28
2019-01-20T06:26:35.977Z,9.13
2019-01-20T06:29:05.795Z,7.83
2019-01-20T06:31:35.506Z,10.32
2019-01-20T06:34:05.433Z,8.13
2019-01-20T06:36:35.155Z,9.83
2019-01-20T06:39:07.075Z,8.93
2019-01-20T06:41:36.905Z,8.68
2019-01-20T06:44:06.746Z,8.48
2019-01-20T06:46:36.403Z,10.20
2019-01-20T06:49:06.256Z,8.93
2019-01-20T06:51:35.978Z,7.90
2019-01-20T06:54:05.758Z,7.35
2019-01-20T06:56:35.534Z,10.55
2019-01-20T06:59:05.254Z,9.88
2019-01-20T07:01:34.925Z,10.40
2019-01-20T07:04:04.754Z,8.15
2019-01-20T07:06:34.511Z,10.00
2019-01-20T07:09:06.088Z,9.43
2019-01-20T07:11:35.851Z,10.43
2019-01-20T07:14:05.629Z,8.95
2019-01-20T07:16:35.421Z,10.58
2019-01-20T07:19:05.164Z,8.05
2019-01-20T07:21:34.896Z,8.70
2019-01-20T07:24:04.695Z,10.80
2019-01-20T07:26:34.365Z,10.60
2019-01-20T07:29:04.162Z,8.60
2019-01-20T07:34:16.349Z,9.93
2019-01-20T07:36:46.093Z,8.53
2019-01-20T07:39:15.927Z,11.15
2019-01-20T07:41:45.697Z,10.75
2019-01-20T07:44:15.386Z,7.97
2019-01-20T07:46:45.107Z,8.30
2019-01-20T07:49:14.758Z,7.90
2019-01-20T07:51:44.512Z,8.35
2019-01-20T07:54:14.266Z,8.10
2019-01-20T07:56:43.992Z,10.18
2019-01-20T07:59:13.653Z,10.35
2019-01-20T08:01:43.366Z,9.68
2019-01-20T08:04:13.045Z,10.60
2019-01-20T08:06:42.774Z,9.18
2019-01-20T08:09:12.535Z,8.43
2019-01-20T08:11:42.307Z,9.68
2019-01-20T08:14:12.087Z,9.63
2019-01-20T08:16:41.896Z,11.97
2019-01-20T08:19:11.724Z,9.38
2019-01-20T08:21:41.416Z,9.83
2019-01-20T08:24:11.117Z,10.10
2019-01-20T08:26:40.849Z,10.18
2019-01-20T08:29:12.471Z,10.03
2019-01-20T08:31:42.253Z,11.40
2019-01-20T08:34:12.086Z,9.60
2019-01-20T08:36:41.858Z,12.07
2019-01-20T08:40:51.617Z,10.53
2019-01-20T08:43:21.378Z,10.58
2019-01-20T08:46:24.032Z,11.75
2019-01-20T08:48:53.971Z,12.33
2019-01-20T08:51:23.701Z,10.38
2019-01-20T08:53:53.366Z,11.80
2019-01-20T08:56:23.193Z,13.10
2019-01-20T08:58:53.100Z,11.18
2019-01-20T09:01:22.957Z,11.97
2019-01-20T09:03:52.661Z,13.22
2019-01-20T09:06:22.586Z,9.73
2019-01-20T09:08:52.254Z,12.95
2019-01-20T09:11:22.070Z,12.73
2019-01-20T09:13:51.927Z,14.75
2019-01-20T09:16:21.673Z,11.80
2019-01-20T09:18:51.412Z,10.40
2019-01-20T09:21:21.162Z,11.25
2019-01-20T09:23:50.807Z,9.28
2019-01-20T09:26:20.587Z,11.55
2019-01-20T09:28:50.235Z,10.35
2019-01-20T09:31:19.906Z,9.40
2019-01-20T09:33:49.710Z,12.63
2019-01-20T09:36:19.433Z,10.93
2019-01-20T09:38:49.120Z,12.23
2019-01-20T09:41:18.801Z,11.18
2019-01-20T09:43:48.516Z,10.45
2019-01-20T09:46:18.259Z,12.37
2019-01-20T09:48:48.019Z,9.03
2019-01-20T09:51:17.673Z,11.93
2019-01-20T09:53:47.384Z,8.90
2019-01-20T09:56:17.035Z,12.23
2019-01-20T09:58:46.748Z,10.95
2019-01-20T10:01:16.470Z,10.93
2019-01-20T10:03:46.151Z,7.95
2019-01-20T10:06:15.903Z,8.40
2019-01-20T10:08:45.629Z,9.65
2019-01-20T10:11:15.281Z,9.13
2019-01-20T10:13:44.965Z,8.90
2019-01-20T10:16:14.639Z,11.73
2019-01-20T10:18:44.394Z,11.60
2019-01-20T10:21:14.152Z,13.10
2019-01-20T10:23:43.833Z,12.55
2019-01-20T10:26:13.664Z,9.58
2019-01-20T10:28:43.325Z,11.22
2019-01-20T10:31:13.150Z,9.75
2019-01-20T10:33:42.985Z,12.00
2019-01-20T10:36:12.640Z,10.98
2019-01-20T10:38:42.410Z,10.40
2019-01-20T10:41:12.312Z,10.37
2019-01-20T10:43:42.142Z,8.98
2019-01-20T10:46:11.995Z,10.20
2019-01-20T10:48:41.767Z,8.95
2019-01-20T10:51:11.621Z,10.47
2019-01-20T10:53:41.275Z,10.55
2019-01-20T10:56:11.104Z,10.95
2019-01-20T10:58:40.895Z,10.33
2019-01-20T11:01:10.913Z,11.07
2019-01-20T11:03:40.794Z,11.88
2019-01-20T11:06:10.512Z,11.95
2019-01-20T11:08:40.396Z,13.07
2019-01-20T11:11:10.161Z,10.23
2019-01-20T11:13:39.872Z,9.73
2019-01-20T11:16:09.782Z,11.55
2019-01-20T11:18:39.526Z,10.58
2019-01-20T11:21:09.229Z,10.95
2019-01-20T11:23:39.220Z,12.50
2019-01-20T11:26:08.943Z,10.35
2019-01-20T11:28:38.746Z,10.43
2019-01-20T11:31:08.545Z,12.93
2019-01-20T11:33:38.388Z,10.53
2019-01-20T11:36:08.106Z,15.30
2019-01-20T11:38:37.793Z,12.28
2019-01-20T11:41:07.611Z,15.80
2019-01-20T11:43:37.324Z,10.53
2019-01-20T11:46:07.175Z,15.27
2019-01-20T11:48:36.956Z,13.53
2019-01-20T11:51:06.675Z,11.23
2019-01-20T11:53:36.420Z,14.23
2019-01-20T11:56:06.386Z,13.60
2019-01-20T11:58:36.079Z,20.40
2019-01-20T12:01:05.984Z,11.83
2019-01-20T12:03:35.696Z,13.05
2019-01-20T12:06:05.755Z,11.55
2019-01-20T12:08:35.499Z,9.13
2019-01-20T12:11:05.303Z,11.33
2019-01-20T12:13:37.333Z,11.05
2019-01-20T12:16:07.260Z,12.03
2019-01-20T12:18:36.943Z,13.77
2019-01-20T12:21:06.942Z,10.90
2019-01-20T12:23:36.668Z,9.43
2019-01-20T12:26:06.445Z,10.70
2019-01-20T12:28:36.157Z,14.50
2019-01-20T12:31:06.151Z,15.33
2019-01-20T12:33:35.957Z,12.07
2019-01-20T12:36:05.730Z,10.78
2019-01-20T12:38:35.564Z,13.03
2019-01-20T12:41:05.398Z,13.65
2019-01-20T12:43:35.151Z,14.65
2019-01-20T12:46:04.878Z,12.75
2019-01-20T12:48:34.561Z,10.45
2019-01-20T12:51:04.413Z,8.90
2019-01-20T12:53:34.110Z,12.43
2019-01-20T12:56:03.823Z,10.50
2019-01-20T12:58:33.565Z,13.60
2019-01-20T13:01:03.315Z,14.00
2019-01-20T13:03:33.210Z,12.05
2019-01-20T13:06:02.926Z,13.80
2019-01-20T13:08:32.723Z,10.70
2019-01-20T13:11:02.440Z,12.03
2019-01-20T13:13:32.183Z,11.15
2019-01-20T13:16:02.031Z,8.03
2019-01-20T13:18:31.863Z,8.20
2019-01-20T13:21:01.520Z,13.07
2019-01-20T13:23:31.170Z,11.87
2019-01-20T13:26:00.930Z,9.57
2019-01-20T13:28:30.651Z,13.43
2019-01-20T13:31:00.680Z,18.23
2019-01-20T13:33:30.394Z,10.40
2019-01-20T13:36:06.921Z,11.33
2019-01-20T13:38:31.573Z,13.77
2019-01-20T13:41:01.373Z,14.30
2019-01-20T13:43:31.136Z,11.40
2019-01-20T13:46:00.809Z,11.87
2019-01-20T13:48:30.456Z,11.03
2019-01-20T13:51:00.135Z,9.93
2019-01-20T13:53:29.877Z,13.07
2019-01-20T13:56:01.280Z,10.10
2019-01-20T13:58:31.331Z,7.47
2019-01-20T14:01:01.169Z,9.23
2019-01-20T14:03:30.995Z,11.93
2019-01-20T14:06:00.751Z,10.67
2019-01-20T14:08:30.444Z,13.40
2019-01-20T14:11:00.291Z,8.53
2019-01-20T14:13:30.024Z,9.07
2019-01-20T14:15:59.763Z,10.90
2019-01-20T14:18:29.519Z,9.80
2019-01-20T14:20:59.303Z,13.60
2019-01-20T14:23:29.024Z,10.57
2019-01-20T14:25:58.706Z,11.50
2019-01-20T14:28:28.359Z,13.70
2019-01-20T14:30:58.105Z,11.20
2019-01-20T14:33:27.923Z,10.53
2019-01-20T14:35:57.591Z,10.33
2019-01-20T14:38:27.376Z,12.57
2019-01-20T14:40:57.142Z,11.90
2019-01-20T14:43:26.925Z,14.17
2019-01-20T14:45:56.820Z,11.93
2019-01-20T14:48:26.488Z,13.87
2019-01-20T14:50:56.257Z,11.90
2019-01-20T14:53:26.045Z,15.73
2019-01-20T14:55:55.882Z,12.20
2019-01-20T14:58:25.680Z,13.43
2019-01-20T15:00:55.935Z,12.50
2019-01-20T15:03:25.816Z,11.97
2019-01-20T15:05:55.494Z,11.47
2019-01-20T15:08:25.128Z,9.60
2019-01-20T15:10:54.806Z,13.20
2019-01-20T15:13:24.551Z,19.10
2019-01-20T15:15:54.213Z,11.83
2019-01-20T15:18:23.972Z,13.27
2019-01-20T15:20:53.746Z,10.50
2019-01-20T15:23:23.469Z,10.00
2019-01-20T15:25:53.136Z,13.47
2019-01-20T15:28:22.832Z,13.60
2019-01-20T15:30:52.527Z,12.60
2019-01-20T15:33:22.281Z,12.10
2019-01-20T15:35:51.959Z,13.73
2019-01-20T15:38:21.816Z,21.20
2019-01-20T15:40:51.522Z,18.07
2019-01-20T15:43:21.198Z,17.63
2019-01-20T15:45:51.016Z,14.47
2019-01-20T15:48:20.701Z,13.72
2019-01-20T15:50:50.402Z,13.60
2019-01-20T15:57:14.229Z,14.03
2019-01-20T15:59:44.017Z,11.10
2019-01-20T16:02:13.734Z,9.53
2019-01-20T16:04:43.738Z,14.03
2019-01-20T16:07:13.606Z,11.33
2019-01-20T16:09:43.366Z,12.30
2019-01-20T16:12:13.173Z,18.98
2019-01-20T16:14:43.107Z,12.67
2019-01-20T16:17:12.982Z,13.58
2019-01-20T16:19:42.714Z,15.85
2019-01-20T16:22:12.517Z,17.33
2019-01-20T16:24:42.210Z,14.65
2019-01-20T16:27:12.481Z,17.55
2019-01-20T16:29:42.494Z,15.30
2019-01-20T16:32:12.247Z,19.82
2019-01-20T16:34:41.984Z,16.05
2019-01-20T16:37:11.893Z,17.00
2019-01-20T16:39:45.563Z,12.70
2019-01-20T16:42:12.984Z,12.50
2019-01-20T16:44:42.712Z,19.45
2019-01-20T16:47:12.584Z,16.73
2019-01-20T16:49:42.457Z,22.32
2019-01-20T16:52:12.165Z,19.00
2019-01-20T16:54:41.982Z,17.77
2019-01-20T16:57:11.785Z,20.68
2019-01-20T16:59:41.507Z,17.12
2019-01-20T17:02:11.379Z,14.25
2019-01-20T17:04:41.181Z,14.63
2019-01-20T17:07:11.054Z,17.15
2019-01-20T17:09:40.861Z,15.53
2019-01-20T17:12:10.594Z,16.95
2019-01-20T17:14:40.328Z,14.83
2019-01-20T17:17:10.188Z,15.90
2019-01-20T17:19:39.948Z,21.87
2019-01-20T17:22:09.887Z,19.48
2019-01-20T17:24:39.572Z,17.15
2019-01-20T17:27:09.426Z,17.55
2019-01-20T17:29:40.852Z,15.32
2019-01-20T17:32:10.802Z,12.63
2019-01-20T17:34:41.524Z,13.68
2019-01-20T17:37:11.644Z,16.32
2019-01-20T17:39:41.359Z,14.85
2019-01-20T17:42:11.276Z,15.03
2019-01-20T17:44:41.004Z,16.45
2019-01-20T17:47:10.880Z,15.83
2019-01-20T17:49:40.707Z,14.43
2019-01-20T17:52:10.520Z,13.58
2019-01-20T17:54:40.181Z,15.13
2019-01-20T17:57:09.971Z,13.62
2019-01-20T17:59:39.782Z,15.50
2019-01-20T18:02:09.576Z,13.58
2019-01-20T18:04:39.323Z,13.00
2019-01-20T18:07:09.498Z,17.73
2019-01-20T18:09:39.153Z,13.08
2019-01-20T18:12:08.951Z,13.38
2019-01-20T18:14:38.698Z,13.53
2019-01-20T18:17:08.593Z,14.30
2019-01-20T18:19:38.325Z,15.45
2019-01-20T18:22:08.110Z,12.65
2019-01-20T18:24:37.990Z,12.53
2019-01-20T18:27:07.762Z,13.85
2019-01-20T18:29:37.490Z,12.43
2019-01-20T18:32:07.243Z,13.53
2019-01-20T18:34:36.982Z,14.55
2019-01-20T18:37:06.849Z,12.45
2019-01-20T18:39:36.538Z,16.42
2019-01-20T18:42:06.298Z,15.25
2019-01-20T18:44:36.078Z,13.30
2019-01-20T18:47:05.908Z,11.30
2019-01-20T18:49:35.665Z,11.20
2019-01-20T18:52:06.179Z,15.03
2019-01-20T18:54:35.875Z,14.63
2019-01-20T18:57:05.624Z,14.90
2019-01-20T18:59:35.408Z,12.25
2019-01-20T19:02:05.243Z,14.43
2019-01-20T19:04:34.968Z,14.03
2019-01-20T19:07:04.745Z,14.18
2019-01-20T19:09:34.473Z,13.83
2019-01-20T19:12:04.972Z,17.07
2019-01-20T19:14:35.324Z,11.50
2019-01-20T19:17:05.155Z,13.75
2019-01-20T19:19:34.952Z,14.40
2019-01-20T19:22:04.983Z,12.50
2019-01-20T19:24:34.677Z,13.53
2019-01-20T19:27:04.743Z,13.32
2019-01-20T19:29:34.496Z,15.18
2019-01-20T19:32:04.566Z,13.68
2019-01-20T19:34:34.308Z,14.20
2019-01-20T19:37:04.173Z,15.50
2019-01-20T19:39:33.930Z,14.47
2019-01-20T19:42:03.709Z,18.42
2019-01-20T19:44:33.399Z,18.70
2019-01-20T19:47:03.144Z,17.52
2019-01-20T19:49:32.877Z,13.93
2019-01-20T19:52:03.210Z,15.05
2019-01-20T19:54:33.007Z,15.55
2019-01-20T19:57:02.873Z,15.85
2019-01-20T19:59:32.658Z,23.83
2019-01-20T20:02:02.571Z,16.42
2019-01-20T20:04:33.362Z,16.12
2019-01-20T20:07:03.166Z,17.02
2019-01-20T20:09:33.026Z,15.53
2019-01-20T20:12:02.772Z,20.82
2019-01-20T20:14:32.539Z,16.07
2019-01-20T20:17:02.454Z,15.95
2019-01-20T20:19:32.321Z,16.65
2019-01-20T20:22:02.154Z,14.95
2019-01-20T20:24:31.824Z,19.82
2019-01-20T20:27:01.700Z,17.77
2019-01-20T20:29:31.397Z,18.52
2019-01-20T20:32:02.529Z,20.68
2019-01-20T20:34:32.215Z,17.75
2019-01-20T20:37:02.037Z,20.68
2019-01-20T20:39:31.736Z,17.65
2019-01-20T20:42:01.490Z,19.60
2019-01-20T20:44:31.371Z,17.87
2019-01-20T20:47:01.099Z,15.03
2019-01-20T20:49:30.843Z,20.45
2019-01-20T20:52:00.519Z,21.55
2019-01-20T20:54:35.372Z,23.65
2019-01-20T20:57:02.162Z,23.92
2019-01-20T20:59:32.022Z,21.23
2019-01-20T21:02:01.867Z,20.80
2019-01-20T21:04:31.626Z,16.37
2019-01-20T21:07:02.753Z,19.57
2019-01-20T21:09:32.534Z,18.90
2019-01-20T21:12:02.377Z,19.48
2019-01-20T21:14:32.132Z,19.95
2019-01-20T21:17:01.911Z,20.95
2019-01-20T21:19:31.840Z,23.75
2019-01-20T21:22:01.508Z,19.67
2019-01-20T21:24:31.233Z,19.80
2019-01-20T21:27:01.005Z,20.15
2019-01-20T21:29:30.807Z,19.32
2019-01-20T21:32:00.592Z,22.30
2019-01-20T21:34:30.362Z,22.20
2019-01-20T21:37:00.089Z,19.73
2019-01-20T21:39:29.848Z,16.82
2019-01-20T21:41:59.712Z,18.77
2019-01-20T21:44:29.375Z,17.55
2019-01-20T21:46:59.153Z,21.73
2019-01-20T21:49:28.946Z,19.67
2019-01-20T21:51:58.601Z,18.85
2019-01-20T21:54:28.372Z,18.85
2019-01-20T21:56:58.105Z,17.67
2019-01-20T21:59:27.839Z,16.87
2019-01-20T22:01:57.546Z,20.17
2019-01-20T22:04:27.231Z,16.32
2019-01-20T22:06:56.958Z,20.52
2019-01-20T22:09:26.786Z,18.30
2019-01-20T22:11:56.624Z,18.80
2019-01-20T22:14:26.305Z,17.77
2019-01-20T22:16:56.183Z,19.23
2019-01-20T22:19:25.850Z,17.02
2019-01-20T22:21:55.544Z,16.67
2019-01-20T22:24:25.245Z,20.08
2019-01-20T22:26:55.003Z,20.68
2019-01-20T22:29:24.765Z,20.25
2019-01-20T22:31:54.583Z,20.50
2019-01-20T22:34:24.299Z,20.05
2019-01-20T22:36:54.182Z,18.45
2019-01-20T22:39:23.908Z,20.77
2019-01-20T22:41:53.646Z,20.15
2019-01-20T22:44:23.429Z,19.15
2019-01-20T22:46:59.872Z,18.98
2019-01-20T22:49:24.588Z,17.77
2019-01-20T22:51:54.403Z,21.45
2019-01-20T22:54:24.104Z,20.15
2019-01-20T22:56:53.816Z,17.55
2019-01-20T22:59:23.591Z,21.12
2019-01-20T23:01:53.381Z,19.27
2019-01-20T23:04:23.559Z,17.92
2019-01-20T23:06:53.304Z,18.45
2019-01-20T23:09:23.036Z,19.32
2019-01-20T23:11:52.806Z,18.87
2019-01-20T23:14:22.479Z,21.50
2019-01-20T23:16:52.353Z,19.90
2019-01-20T23:19:22.299Z,21.37
2019-01-20T23:21:52.122Z,24.37
2019-01-20T23:24:21.872Z,24.67
2019-01-20T23:26:51.639Z,21.30
2019-01-20T23:29:21.309Z,22.13
2019-01-20T23:31:50.992Z,20.75
2019-01-20T23:34:20.672Z,25.77
2019-01-20T23:36:50.494Z,21.12
2019-01-20T23:39:20.183Z,21.57
2019-01-20T23:41:49.878Z,22.05
2019-01-20T23:44:19.697Z,22.22
2019-01-20T23:46:49.374Z,23.73
2019-01-20T23:49:19.062Z,21.60
2019-01-20T23:51:48.897Z,20.50
2019-01-20T23:54:18.630Z,27.25
2019-01-20T23:56:48.658Z,19.77
2019-01-20T23:59:18.450Z,23.22
